Time;durP1;ratioP1;P1;durP2;ratioP2;P2;SDS_P1;SDS_P2;PMS_P1;PMS_P2;Temp;Humidity;BMP_temperature;BMP_pressure;BME280_temperature;BME280_humidity;BME280_pressure;Samples;Min_cycle;Max_cycle;Signal;HPM_P1;HPM_P2
2022/04/01 00:01:05;;;;;;;9.33;6.30;;;10.20;99.90;;;;;;5054310;28;20482;-79
2022/04/01 00:03:35;;;;;;;9.17;6.27;;;10.20;99.90;;;;;;5059565;28;20532;-79
2022/04/01 00:06:03;;;;;;;7.93;5.30;;;10.20;99.90;;;;;;5064137;28;20527;-79
2022/04/01 00:08:31;;;;;;;5.13;4.63;;;10.10;99.90;;;;;;5062862;28;20461;-77
2022/04/01 00:10:59;;;;;;;7.47;5.27;;;10.10;99.90;;;;;;5057912;28;20487;-80
2022/04/01 00:13:27;;;;;;;8.53;6.27;;;10.10;99.90;;;;;;5061517;28;20453;-79
2022/04/01 00:15:55;;;;;;;7.40;4.97;;;10.10;99.90;;;;;;5052519;28;20477;-79
2022/04/01 00:18:24;;;;;;;8.80;6.27;;;10.20;99.90;;;;;;5059019;28;20501;-79
2022/04/01 00:20:53;;;;;;;9.00;6.33;;;10.10;99.90;;;;;;5055558;28;20474;-78
2022/04/01 00:23:21;;;;;;;9.07;6.13;;;10.10;99.90;;;;;;5061311;28;20505;-79
2022/04/01 00:25:50;;;;;;;7.63;4.90;;;10.20;99.90;;;;;;5060902;28;20480;-78
2022/04/01 00:28:18;;;;;;;7.10;5.47;;;10.20;99.90;;;;;;5054979;28;20525;-78
2022/04/01 00:30:46;;;;;;;9.80;6.30;;;10.20;99.90;;;;;;5053525;28;20472;-77
2022/04/01 00:33:16;;;;;;;9.87;5.70;;;10.20;99.90;;;;;;5054527;28;20452;-79
2022/04/01 00:35:44;;;;;;;7.60;5.30;;;10.20;99.90;;;;;;5056760;28;20509;-77
2022/04/01 00:38:14;;;;;;;9.23;5.50;;;10.10;99.90;;;;;;5059380;28;21032;-79
2022/04/01 00:40:42;;;;;;;8.67;5.77;;;10.20;99.90;;;;;;5067517;28;21000;-79
2022/04/01 00:43:10;;;;;;;8.40;5.27;;;10.20;99.90;;;;;;5059792;28;20487;-80
2022/04/01 00:45:39;;;;;;;8.50;5.53;;;10.50;99.90;;;;;;5065460;28;20489;-79
2022/04/01 00:48:07;;;;;;;10.57;6.30;;;10.20;99.90;;;;;;5064431;28;20460;-79
2022/04/01 00:50:36;;;;;;;8.67;6.70;;;10.20;99.90;;;;;;5065714;28;20479;-78
2022/04/01 00:53:04;;;;;;;9.57;7.20;;;10.20;99.90;;;;;;5059943;28;20463;-78
2022/04/01 00:55:35;;;;;;;11.43;7.43;;;10.10;99.90;;;;;;5067236;28;20987;-78
2022/04/01 00:58:05;;;;;;;14.57;9.13;;;10.00;99.90;;;;;;5058675;28;20451;-78
2022/04/01 01:00:35;;;;;;;13.53;8.77;;;10.00;99.90;;;;;;5058555;28;20480;-78
2022/04/01 01:03:04;;;;;;;13.53;8.50;;;10.00;99.90;;;;;;5058700;28;20978;-78
2022/04/01 01:05:33;;;;;;;15.67;9.90;;;10.00;99.90;;;;;;5065807;28;20465;-78
2022/04/01 01:08:05;;;;;;;14.13;10.00;;;9.90;99.90;;;;;;5064535;28;20463;-79
2022/04/01 01:10:35;;;;;;;19.00;10.90;;;10.00;99.90;;;;;;5060150;28;20583;-79
2022/04/01 01:13:03;;;;;;;17.90;10.40;;;9.90;99.90;;;;;;5055811;28;20465;-79
2022/04/01 01:15:31;;;;;;;13.83;10.00;;;9.90;99.90;;;;;;5060947;28;20989;-79
2022/04/01 01:18:00;;;;;;;15.47;10.33;;;9.90;99.90;;;;;;5056492;28;20451;-79
2022/04/01 01:20:28;;;;;;;19.07;11.80;;;9.90;99.90;;;;;;5065074;28;20524;-77
2022/04/01 01:22:57;;;;;;;22.67;14.23;;;9.80;99.90;;;;;;5064877;28;20530;-78
2022/04/01 01:25:27;;;;;;;21.03;13.90;;;9.80;99.90;;;;;;5058411;28;20508;-80
2022/04/01 01:27:55;;;;;;;20.23;12.83;;;9.80;99.90;;;;;;5061380;28;20465;-78
2022/04/01 01:30:24;;;;;;;20.03;13.30;;;9.70;99.90;;;;;;5063491;28;20476;-79
2022/04/01 01:32:53;;;;;;;23.57;13.70;;;9.70;99.90;;;;;;5059530;28;20453;-78
2022/04/01 01:35:21;;;;;;;21.10;13.50;;;9.50;99.90;;;;;;5065790;28;20447;-78
2022/04/01 01:37:49;;;;;;;23.83;12.83;;;9.60;99.90;;;;;;5069401;28;20455;-79
2022/04/01 01:40:18;;;;;;;22.40;13.23;;;9.60;99.90;;;;;;5060605;28;20533;-78
2022/04/01 01:42:47;;;;;;;18.10;12.27;;;9.60;99.90;;;;;;5059988;28;20457;-77
2022/04/01 01:45:15;;;;;;;23.00;13.30;;;9.50;99.90;;;;;;5055565;28;21009;-79
2022/04/01 01:47:43;;;;;;;22.07;14.10;;;9.50;99.90;;;;;;5063226;28;20459;-79
2022/04/01 01:55:44;;;;;;;22.67;13.90;;;9.60;99.90;;;;;;5054621;28;20465;-78
2022/04/01 01:58:15;;;;;;;18.63;12.70;;;9.40;99.90;;;;;;5063730;28;20463;-78
2022/04/01 02:00:43;;;;;;;22.53;13.70;;;9.40;99.90;;;;;;5064383;28;21016;-78
2022/04/01 02:03:11;;;;;;;21.20;12.30;;;9.40;99.90;;;;;;5064450;28;21155;-78
2022/04/01 02:05:40;;;;;;;20.90;12.30;;;9.40;99.90;;;;;;5062449;28;20476;-78
2022/04/01 02:08:08;;;;;;;21.50;12.80;;;9.50;99.90;;;;;;5061533;28;20461;-78
2022/04/01 02:10:37;;;;;;;21.50;12.47;;;9.50;99.90;;;;;;5051178;28;20537;-78
2022/04/01 02:13:05;;;;;;;18.67;12.80;;;9.50;99.90;;;;;;5058321;28;20467;-79
2022/04/01 02:15:35;;;;;;;20.70;12.90;;;9.60;99.90;;;;;;5063084;28;20456;-77
2022/04/01 02:18:03;;;;;;;22.40;14.03;;;9.60;99.90;;;;;;5065216;28;20452;-79
2022/04/01 02:20:33;;;;;;;19.47;11.87;;;9.60;99.90;;;;;;5057687;28;20821;-76
2022/04/01 02:23:01;;;;;;;19.50;13.17;;;9.50;99.90;;;;;;5054143;28;21931;-78
2022/04/01 02:25:29;;;;;;;20.53;14.60;;;9.60;99.90;;;;;;5051689;28;21047;-78
2022/04/01 02:27:57;;;;;;;25.80;15.07;;;9.60;99.90;;;;;;5058860;28;20465;-78
2022/04/01 02:30:27;;;;;;;24.63;16.10;;;9.60;99.90;;;;;;5051431;28;20494;-78
2022/04/01 02:32:56;;;;;;;23.83;12.90;;;9.50;99.90;;;;;;5054476;28;20465;-78
2022/04/01 02:35:25;;;;;;;21.03;12.87;;;9.40;99.90;;;;;;5055407;28;20457;-77
2022/04/01 02:37:53;;;;;;;20.40;13.50;;;9.40;99.90;;;;;;5055548;28;20464;-77
2022/04/01 02:40:21;;;;;;;16.17;11.47;;;9.20;99.90;;;;;;5057955;28;20480;-78
2022/04/01 02:42:53;;;;;;;20.70;11.73;;;9.30;99.90;;;;;;5062460;28;20546;-78
2022/04/01 02:45:24;;;;;;;20.40;12.63;;;9.30;99.90;;;;;;5062196;28;20493;-78
2022/04/01 02:47:53;;;;;;;20.50;12.63;;;9.40;99.90;;;;;;5053889;28;20456;-81
2022/04/01 02:50:23;;;;;;;20.33;11.60;;;9.30;99.90;;;;;;5058354;28;20892;-79
2022/04/01 02:52:51;;;;;;;26.13;14.03;;;9.40;99.90;;;;;;5055352;28;20495;-79
2022/04/01 02:55:19;;;;;;;21.27;11.87;;;9.40;99.90;;;;;;5054229;28;20787;-80
2022/04/01 02:57:47;;;;;;;20.90;11.43;;;9.20;99.90;;;;;;5056704;28;20455;-79
2022/04/01 03:00:21;;;;;;;21.57;13.00;;;9.30;99.90;;;;;;5056410;28;20475;-78
2022/04/01 03:02:50;;;;;;;19.10;11.60;;;9.20;99.90;;;;;;5057962;28;20459;-78
2022/04/01 03:05:19;;;;;;;19.97;11.77;;;9.30;99.90;;;;;;5058901;28;20453;-79
2022/04/01 03:07:49;;;;;;;17.40;11.37;;;9.30;99.90;;;;;;5059609;28;20486;-78
2022/04/01 03:10:17;;;;;;;17.50;11.37;;;9.60;99.90;;;;;;5051773;28;20479;-78
2022/04/01 03:12:45;;;;;;;16.30;9.93;;;9.30;99.90;;;;;;5063041;28;20469;-78
2022/04/01 03:15:13;;;;;;;17.00;10.20;;;9.30;99.90;;;;;;5057991;28;20458;-78
2022/04/01 03:17:41;;;;;;;13.53;9.43;;;9.30;99.90;;;;;;5060387;28;20945;-78
2022/04/01 03:20:13;;;;;;;16.70;10.60;;;9.30;99.90;;;;;;5054398;28;20464;-80
2022/04/01 03:22:42;;;;;;;14.37;10.03;;;9.20;99.90;;;;;;5056984;28;21265;-78
2022/04/01 03:25:15;;;;;;;17.10;10.60;;;9.30;99.90;;;;;;5051197;28;20469;-79
2022/04/01 03:27:43;;;;;;;12.70;8.40;;;9.20;99.90;;;;;;5063331;28;20443;-77
2022/04/01 03:30:13;;;;;;;12.43;8.13;;;9.50;99.90;;;;;;5054971;28;21049;-78
2022/04/01 03:32:43;;;;;;;11.53;8.27;;;9.10;99.90;;;;;;5060924;28;20447;-77
2022/04/01 03:35:14;;;;;;;12.70;8.80;;;9.10;99.90;;;;;;5055332;28;20518;-78
2022/04/01 03:37:45;;;;;;;8.70;6.50;;;8.90;99.90;;;;;;5054929;28;20971;-78
2022/04/01 03:40:15;;;;;;;10.57;6.90;;;8.90;99.90;;;;;;5053976;28;20463;-78
2022/04/01 03:42:44;;;;;;;11.27;8.30;;;8.40;99.90;;;;;;5054585;28;20460;-78
2022/04/01 03:45:13;;;;;;;17.23;7.90;;;8.90;99.90;;;;;;5057432;28;20455;-77
2022/04/01 03:47:52;;;;;;;11.03;7.23;;;9.00;99.90;;;;;;5057408;28;20564;-77
2022/04/01 03:50:29;;;;;;;10.20;7.07;;;9.10;99.90;;;;;;5061909;28;20530;-79
2022/04/01 03:53:04;;;;;;;14.47;7.10;;;9.00;99.90;;;;;;5051842;28;20983;-78
2022/04/01 03:55:36;;;;;;;8.10;7.10;;;9.10;99.90;;;;;;5051559;28;20512;-77
2022/04/01 03:58:08;;;;;;;10.47;6.73;;;9.10;99.90;;;;;;5058100;28;20541;-78
2022/04/01 04:00:38;;;;;;;7.40;5.40;;;9.10;99.90;;;;;;5055246;28;20572;-78
2022/04/01 04:03:08;;;;;;;8.40;5.57;;;9.10;99.90;;;;;;5055538;28;20464;-79
2022/04/01 04:05:38;;;;;;;7.67;5.47;;;9.40;99.90;;;;;;5055569;28;20444;-78
2022/04/01 04:08:07;;;;;;;7.70;6.43;;;9.10;99.90;;;;;;5059364;28;20447;-78
2022/04/01 04:10:38;;;;;;;7.57;5.40;;;9.00;99.90;;;;;;5058425;28;20517;-78
2022/04/01 04:13:06;;;;;;;9.30;5.63;;;9.00;99.90;;;;;;5059328;28;20462;-80
2022/04/01 04:15:40;;;;;;;9.67;5.03;;;9.00;99.90;;;;;;5057103;28;20458;-79
2022/04/01 04:18:13;;;;;;;9.50;5.50;;;9.10;99.90;;;;;;5057463;28;20460;-79
2022/04/01 04:20:54;;;;;;;8.40;5.80;;;9.10;99.90;;;;;;5054731;28;20854;-79
2022/04/01 04:23:26;;;;;;;8.03;5.63;;;8.60;99.90;;;;;;5056258;28;20454;-77
2022/04/01 04:26:01;;;;;;;8.27;5.77;;;9.00;99.90;;;;;;5057929;28;20460;-78
2022/04/01 04:28:35;;;;;;;8.17;5.10;;;9.00;99.90;;;;;;5064855;28;20469;-78
2022/04/01 04:31:07;;;;;;;9.03;5.97;;;9.00;99.90;;;;;;5057762;28;20565;-75
2022/04/01 04:33:44;;;;;;;13.80;8.67;;;9.10;99.90;;;;;;5058113;28;20467;-76
2022/04/01 04:36:16;;;;;;;10.97;5.93;;;9.00;99.90;;;;;;5053571;28;20479;-77
2022/04/01 04:38:47;;;;;;;10.73;7.30;;;8.90;99.90;;;;;;5057587;28;20521;-77
2022/04/01 04:41:20;;;;;;;10.37;7.13;;;9.00;99.90;;;;;;5059740;28;20235;-78
2022/04/01 04:43:50;;;;;;;7.87;6.10;;;9.00;99.90;;;;;;5054488;28;20853;-77
2022/04/01 04:46:20;;;;;;;8.33;5.63;;;8.80;99.90;;;;;;5059299;28;20511;-81
2022/04/01 04:48:50;;;;;;;9.03;6.00;;;8.80;99.90;;;;;;5055922;28;20455;-78
2022/04/01 04:51:24;;;;;;;10.77;6.40;;;8.90;99.90;;;;;;5056394;28;20476;-79
2022/04/01 04:53:54;;;;;;;9.57;6.20;;;8.80;99.90;;;;;;5057431;28;20955;-79
2022/04/01 04:56:26;;;;;;;7.50;5.60;;;8.80;99.90;;;;;;5055978;28;20463;-78
2022/04/01 04:58:55;;;;;;;9.50;6.40;;;8.80;99.90;;;;;;5056386;28;20453;-77
2022/04/01 05:01:39;;;;;;;9.13;5.20;;;8.80;99.90;;;;;;5055261;28;20474;-76
2022/04/01 05:04:25;;;;;;;9.50;6.07;;;8.70;99.90;;;;;;5048025;28;20448;-78
2022/04/01 05:07:02;;;;;;;9.50;6.20;;;8.70;99.90;;;;;;5051420;28;20518;-78
2022/04/01 05:09:41;;;;;;;9.60;6.23;;;8.60;99.90;;;;;;5054668;28;20466;-79
2022/04/01 05:12:25;;;;;;;10.83;6.17;;;8.90;99.90;;;;;;5048734;28;20461;-78
2022/04/01 05:15:10;;;;;;;8.33;5.63;;;8.40;99.90;;;;;;5050911;28;21167;-77
2022/04/01 05:17:45;;;;;;;9.43;6.10;;;8.50;99.90;;;;;;5051013;28;20798;-78
2022/04/01 05:20:16;;;;;;;8.40;5.60;;;8.60;99.90;;;;;;5051971;28;20477;-79
2022/04/01 05:22:49;;;;;;;10.97;6.93;;;8.50;99.90;;;;;;5054425;28;21256;-79
2022/04/01 05:25:20;;;;;;;9.37;6.07;;;8.50;99.90;;;;;;5056735;28;20460;-79
2022/04/01 05:27:52;;;;;;;13.10;8.50;;;8.50;99.90;;;;;;5056385;28;20567;-79
2022/04/01 05:30:25;;;;;;;12.57;7.90;;;8.60;99.90;;;;;;5054548;28;21052;-77
2022/04/01 05:33:06;;;;;;;11.17;6.93;;;8.40;99.90;;;;;;5056005;28;21271;-79
2022/04/01 05:35:37;;;;;;;11.07;7.37;;;8.60;99.90;;;;;;5056763;28;20572;-80
2022/04/01 05:38:07;;;;;;;11.10;7.73;;;8.50;99.90;;;;;;5061918;28;20466;-78
2022/04/01 05:40:38;;;;;;;12.50;8.10;;;8.60;99.90;;;;;;5054838;28;20511;-78
2022/04/01 05:43:07;;;;;;;10.50;7.10;;;8.50;99.90;;;;;;5052686;28;20837;-79
2022/04/01 05:45:36;;;;;;;9.60;6.97;;;8.40;99.90;;;;;;5056712;28;20507;-78
2022/04/01 05:48:11;;;;;;;13.97;7.97;;;8.40;99.90;;;;;;5058168;28;20559;-80
2022/04/01 05:50:40;;;;;;;10.07;6.67;;;8.50;99.90;;;;;;5061325;28;20519;-78
2022/04/01 05:53:11;;;;;;;10.87;6.93;;;8.70;99.90;;;;;;5065431;28;20451;-79
2022/04/01 05:55:40;;;;;;;11.83;7.07;;;8.50;99.90;;;;;;5065255;28;20459;-78
2022/04/01 05:58:09;;;;;;;12.43;7.70;;;8.50;99.90;;;;;;5064019;28;20443;-78
2022/04/01 06:00:52;;;;;;;11.17;7.63;;;8.40;99.90;;;;;;5066241;28;20478;-79
2022/04/01 06:03:53;;;;;;;13.47;8.00;;;8.30;99.90;;;;;;5063956;28;20459;-79
2022/04/01 06:06:28;;;;;;;10.50;7.10;;;8.30;99.90;;;;;;5061021;28;20464;-79
2022/04/01 06:09:04;;;;;;;10.00;7.70;;;8.30;99.90;;;;;;5060454;28;20478;-79
2022/04/01 06:11:37;;;;;;;11.83;6.80;;;8.30;99.90;;;;;;5060102;28;20484;-78
2022/04/01 06:14:16;;;;;;;11.10;7.90;;;8.50;99.90;;;;;;5061344;28;20517;-79
2022/04/01 06:16:47;;;;;;;7.27;6.37;;;8.40;99.90;;;;;;5057347;28;20504;-78
2022/04/01 06:19:23;;;;;;;10.63;7.10;;;8.30;99.90;;;;;;5060191;28;20459;-78
2022/04/01 06:22:03;;;;;;;14.70;8.70;;;8.30;99.90;;;;;;5062568;28;20837;-78
2022/04/01 06:24:41;;;;;;;10.97;7.30;;;8.20;99.90;;;;;;5064634;28;20970;-79
2022/04/01 06:27:13;;;;;;;11.33;7.50;;;8.20;99.90;;;;;;5058530;28;21146;-79
2022/04/01 06:29:45;;;;;;;12.13;7.43;;;8.20;99.90;;;;;;5057845;28;20479;-78
2022/04/01 06:32:20;;;;;;;12.10;7.97;;;8.20;99.90;;;;;;5057578;28;20458;-78
2022/04/01 06:35:00;;;;;;;11.77;6.93;;;8.20;99.90;;;;;;5062490;28;20500;-79
2022/04/01 06:37:30;;;;;;;12.77;9.40;;;8.30;99.90;;;;;;5062137;28;20565;-80
2022/04/01 06:40:06;;;;;;;12.27;7.63;;;8.40;99.90;;;;;;5061825;28;20491;-80
2022/04/01 06:42:37;;;;;;;13.40;7.70;;;8.30;99.90;;;;;;5055915;28;20467;-79
2022/04/01 06:45:09;;;;;;;11.20;7.37;;;8.10;99.90;;;;;;5058112;28;20451;-79
2022/04/01 06:47:39;;;;;;;10.23;7.27;;;8.10;99.90;;;;;;5062550;28;20474;-79
2022/04/01 06:50:09;;;;;;;10.40;8.03;;;8.20;99.90;;;;;;5066596;28;20500;-80
2022/04/01 06:52:38;;;;;;;10.40;7.43;;;8.30;99.90;;;;;;5062571;28;20962;-78
2022/04/01 06:55:08;;;;;;;9.50;7.30;;;8.40;99.90;;;;;;5064826;28;20455;-79
2022/04/01 06:57:36;;;;;;;8.60;7.30;;;8.10;99.90;;;;;;5059443;28;20499;-77
2022/04/01 07:00:05;;;;;;;8.63;6.50;;;8.30;99.90;;;;;;5055978;28;20471;-79
2022/04/01 07:02:35;;;;;;;9.17;6.57;;;8.10;99.90;;;;;;5064453;28;20477;-78
2022/04/01 07:05:05;;;;;;;10.07;7.53;;;8.10;99.90;;;;;;5063444;28;20517;-80
2022/04/01 07:07:33;;;;;;;8.33;6.40;;;8.20;99.90;;;;;;5060774;28;20489;-78
2022/04/01 07:10:02;;;;;;;11.43;7.57;;;8.20;99.90;;;;;;5062608;28;20478;-78
2022/04/01 07:12:32;;;;;;;9.07;7.20;;;8.20;99.90;;;;;;5061657;28;20455;-79
2022/04/01 07:15:00;;;;;;;10.60;6.50;;;8.20;99.90;;;;;;5056295;28;20482;-78
2022/04/01 07:17:28;;;;;;;7.97;7.00;;;8.20;99.90;;;;;;5058510;28;20442;-80
2022/04/01 07:19:58;;;;;;;9.23;6.60;;;8.20;99.90;;;;;;5064761;28;20470;-80
2022/04/01 07:22:26;;;;;;;11.53;8.27;;;8.20;99.90;;;;;;5055753;28;20879;-78
2022/04/01 07:24:55;;;;;;;7.90;6.30;;;8.20;99.90;;;;;;5062548;28;20459;-79
2022/04/01 07:27:23;;;;;;;7.80;6.37;;;8.30;99.90;;;;;;5056485;28;20467;-79
2022/04/01 07:29:51;;;;;;;10.17;7.50;;;8.20;99.90;;;;;;5056483;28;20475;-79
2022/04/01 07:32:32;;;;;;;9.70;6.57;;;8.30;99.90;;;;;;5061748;28;20445;-78
2022/04/01 07:35:03;;;;;;;9.33;5.97;;;8.30;99.90;;;;;;5058424;28;20513;-77
2022/04/01 07:37:32;;;;;;;10.60;7.37;;;8.40;99.90;;;;;;5058534;28;20455;-78
2022/04/01 07:40:22;;;;;;;8.87;6.80;;;8.40;99.90;;;;;;5058926;28;20479;-78
2022/04/01 07:42:50;;;;;;;11.10;7.13;;;8.50;99.90;;;;;;5060918;28;20959;-78
2022/04/01 07:45:19;;;;;;;10.40;7.20;;;8.30;99.90;;;;;;5062422;28;20467;-78
2022/04/01 07:47:49;;;;;;;9.50;6.20;;;8.20;99.90;;;;;;5065805;28;20468;-78
2022/04/01 07:50:20;;;;;;;9.83;7.40;;;8.20;99.90;;;;;;5057677;28;20493;-78
2022/04/01 07:52:49;;;;;;;13.00;8.73;;;8.10;99.90;;;;;;5062407;28;20530;-78
2022/04/01 07:55:18;;;;;;;19.63;8.27;;;8.20;99.90;;;;;;5062235;28;20585;-78
2022/04/01 07:57:48;;;;;;;11.77;8.00;;;8.20;99.90;;;;;;5058026;28;20478;-78
2022/04/01 08:00:34;;;;;;;10.77;8.17;;;8.10;99.90;;;;;;5060070;28;20486;-79
2022/04/01 08:03:02;;;;;;;11.37;8.03;;;8.30;99.90;;;;;;5065045;28;20487;-79
2022/04/01 08:05:32;;;;;;;11.40;7.73;;;8.10;99.90;;;;;;5062825;28;20497;-80
2022/04/01 08:08:00;;;;;;;12.10;8.30;;;8.10;99.90;;;;;;5063551;28;20451;-78
2022/04/01 08:10:28;;;;;;;11.63;8.10;;;8.20;99.90;;;;;;5057277;28;20524;-77
2022/04/01 08:12:57;;;;;;;11.13;7.60;;;8.10;99.90;;;;;;5054888;28;20974;-79
2022/04/01 08:15:25;;;;;;;9.70;7.70;;;8.20;99.90;;;;;;5060324;28;20458;-79
2022/04/01 08:17:59;;;;;;;10.50;7.87;;;8.10;99.90;;;;;;5056780;28;20524;-79
2022/04/01 08:20:27;;;;;;;13.00;8.80;;;8.20;99.90;;;;;;5060010;28;21005;-78
2022/04/01 08:22:57;;;;;;;11.17;9.60;;;8.20;99.90;;;;;;5061367;28;20455;-78
2022/04/01 08:25:25;;;;;;;14.47;9.20;;;8.20;99.90;;;;;;5054341;28;20999;-78
2022/04/01 08:28:03;;;;;;;10.43;7.80;;;8.00;99.90;;;;;;5051357;28;20448;-79
2022/04/01 08:30:32;;;;;;;10.07;7.93;;;8.00;99.90;;;;;;5075860;28;20482;-79
2022/04/01 08:33:00;;;;;;;13.40;8.07;;;8.00;99.90;;;;;;5063392;28;20497;-76
2022/04/01 08:35:29;;;;;;;12.20;8.00;;;7.90;99.90;;;;;;5062669;28;20455;-79
2022/04/01 08:37:58;;;;;;;8.85;6.68;;;7.80;99.90;;;;;;5064095;28;20457;-79
2022/04/01 08:40:27;;;;;;;14.00;9.32;;;8.00;99.90;;;;;;5057376;28;20865;-77
2022/04/01 08:42:55;;;;;;;9.27;7.10;;;8.20;99.90;;;;;;5052817;28;20231;-79
2022/04/01 08:45:23;;;;;;;9.13;7.13;;;8.20;99.90;;;;;;5057320;28;20458;-77
2022/04/01 08:47:52;;;;;;;10.83;6.93;;;8.10;99.90;;;;;;5059641;28;20438;-79
2022/04/01 08:50:20;;;;;;;9.13;6.70;;;8.10;99.90;;;;;;5057388;28;20926;-79
2022/04/01 08:52:48;;;;;;;9.37;7.37;;;8.00;99.90;;;;;;5054902;28;20455;-78
2022/04/01 08:55:18;;;;;;;9.95;6.78;;;8.00;99.90;;;;;;5053235;28;20455;-78
2022/04/01 08:57:46;;;;;;;10.10;7.30;;;8.00;99.90;;;;;;5059059;28;20787;-80
2022/04/01 09:00:34;;;;;;;8.70;6.10;;;7.90;99.90;;;;;;5053104;28;20471;-79
2022/04/01 09:03:03;;;;;;;11.40;6.00;;;7.90;99.90;;;;;;5063018;28;21044;-78
2022/04/01 09:05:32;;;;;;;9.80;6.50;;;7.80;99.90;;;;;;5062636;28;20499;-76
2022/04/01 09:08:01;;;;;;;7.77;6.13;;;7.80;99.90;;;;;;5064895;28;20457;-79
2022/04/01 09:10:32;;;;;;;8.93;6.17;;;7.80;99.90;;;;;;5059972;28;20642;-78
2022/04/01 09:13:00;;;;;;;8.73;6.47;;;8.10;99.90;;;;;;5059650;28;20478;-77
2022/04/01 09:15:41;;;;;;;6.82;5.70;;;7.90;99.90;;;;;;5063813;28;20800;-80
2022/04/01 09:18:09;;;;;;;9.27;5.75;;;7.90;99.90;;;;;;5060883;28;20208;-79
2022/04/01 09:20:48;;;;;;;5.80;5.30;;;7.90;99.90;;;;;;5059157;28;20212;-80
2022/04/01 09:23:23;;;;;;;8.98;5.68;;;7.90;99.90;;;;;;5053473;28;20504;-78
2022/04/01 09:25:54;;;;;;;6.97;5.10;;;7.90;99.90;;;;;;5062657;28;20215;-77
2022/04/01 09:28:27;;;;;;;6.70;5.63;;;7.90;99.90;;;;;;5065782;28;20485;-77
2022/04/01 09:31:00;;;;;;;7.40;5.90;;;7.70;99.90;;;;;;5057954;28;20481;-77
2022/04/01 09:33:49;;;;;;;8.30;5.50;;;7.80;99.90;;;;;;5059203;28;20535;-78
2022/04/01 09:36:19;;;;;;;8.13;5.97;;;7.90;99.90;;;;;;5059199;28;20462;-78
2022/04/01 09:38:59;;;;;;;8.03;5.63;;;7.80;99.90;;;;;;5064352;28;20458;-78
2022/04/01 09:41:35;;;;;;;6.07;5.47;;;7.80;99.90;;;;;;5065355;28;20554;-77
2022/04/01 09:44:25;;;;;;;9.33;5.47;;;8.00;99.90;;;;;;5062445;28;20440;-78
2022/04/01 09:46:58;;;;;;;8.70;5.97;;;8.10;99.90;;;;;;5061653;28;20443;-77
2022/04/01 09:49:32;;;;;;;7.17;4.90;;;8.10;99.90;;;;;;5065483;28;20537;-77
2022/04/01 09:52:04;;;;;;;7.47;5.32;;;7.90;99.90;;;;;;5067323;28;20954;-79
2022/04/01 09:54:33;;;;;;;7.17;5.10;;;7.90;99.90;;;;;;5058715;28;20208;-77
2022/04/01 09:57:05;;;;;;;8.23;5.50;;;7.90;99.90;;;;;;5056247;28;20442;-78
2022/04/01 09:59:34;;;;;;;6.60;5.67;;;7.90;99.90;;;;;;5065167;28;20443;-78
2022/04/01 10:02:02;;;;;;;7.13;5.90;;;7.90;99.90;;;;;;5067861;28;20450;-77
2022/04/01 10:04:30;;;;;;;7.90;6.47;;;8.00;99.90;;;;;;5061546;28;20197;-76
2022/04/01 10:07:01;;;;;;;6.32;5.05;;;8.00;99.90;;;;;;5059466;28;20502;-79
2022/04/01 10:09:31;;;;;;;8.00;5.83;;;7.80;99.90;;;;;;5058768;28;20218;-78
2022/04/01 10:12:23;;;;;;;9.00;6.90;;;7.90;99.90;;;;;;5062558;28;20454;-78
2022/04/01 10:14:54;;;;;;;6.10;5.50;;;7.90;99.90;;;;;;5063142;28;20455;-78
2022/04/01 10:17:29;;;;;;;7.60;5.73;;;7.80;99.90;;;;;;5060978;28;20455;-79
2022/04/01 10:20:02;;;;;;;8.03;5.97;;;7.80;99.90;;;;;;5061519;28;20475;-79
2022/04/01 10:22:31;;;;;;;8.07;6.47;;;7.80;99.90;;;;;;5055274;28;20471;-78
2022/04/01 10:25:05;;;;;;;8.27;6.22;;;7.80;99.90;;;;;;5059453;28;20453;-78
2022/04/01 10:27:40;;;;;;;6.70;5.70;;;7.90;99.90;;;;;;5061212;28;20207;-79
2022/04/01 10:30:11;;;;;;;6.33;5.50;;;7.80;99.90;;;;;;5059228;28;20488;-79
2022/04/01 10:32:42;;;;;;;7.17;5.23;;;7.80;99.90;;;;;;5063680;28;20518;-78
2022/04/01 10:35:22;;;;;;;7.00;5.70;;;7.70;99.90;;;;;;5060383;28;20607;-79
2022/04/01 10:37:55;;;;;;;8.63;5.73;;;7.80;99.90;;;;;;5055105;28;20550;-77
2022/04/01 10:40:25;;;;;;;5.50;4.80;;;7.70;99.90;;;;;;5058488;28;20462;-79
2022/04/01 10:42:55;;;;;;;4.82;4.13;;;7.70;99.90;;;;;;5061951;28;21013;-79
2022/04/01 10:45:26;;;;;;;5.50;4.60;;;7.70;99.90;;;;;;5052436;28;20204;-79
2022/04/01 10:53:45;;;;;;;5.27;3.87;;;8.00;99.90;;;;;;5055387;28;20462;-79
2022/04/01 10:56:28;;;;;;;4.63;3.20;;;7.80;99.90;;;;;;5049809;28;20498;-79
2022/04/01 10:59:15;;;;;;;5.50;4.20;;;7.70;99.90;;;;;;5055405;28;20261;-78
2022/04/01 11:02:04;;;;;;;4.87;3.90;;;7.70;99.90;;;;;;5057689;28;20469;-78
2022/04/01 11:04:35;;;;;;;3.73;3.43;;;7.80;99.90;;;;;;5052680;28;21426;-76
2022/04/01 11:07:06;;;;;;;4.47;3.33;;;7.80;99.90;;;;;;5049902;28;20974;-78
2022/04/01 11:09:35;;;;;;;3.20;2.90;;;7.70;99.90;;;;;;5055111;28;20449;-78
2022/04/01 11:12:38;;;;;;;6.20;3.07;;;7.80;99.90;;;;;;5055345;28;20455;-78
2022/04/01 11:15:20;;;;;;;5.37;3.40;;;7.90;99.90;;;;;;5016128;28;20441;-79
2022/04/01 11:18:11;;;;;;;4.30;3.00;;;7.80;99.90;;;;;;5014027;28;20472;-80
2022/04/01 11:20:41;;;;;;;4.30;3.20;;;7.90;99.90;;;;;;5046966;28;20478;-78
2022/04/01 11:23:14;;;;;;;4.33;3.23;;;7.90;99.90;;;;;;5053586;28;20542;-77
2022/04/01 11:25:57;;;;;;;3.67;2.80;;;8.00;99.90;;;;;;5051408;28;20826;-78
2022/04/01 11:28:30;;;;;;;3.53;2.50;;;8.30;99.90;;;;;;5056277;28;20532;-78
2022/04/01 11:31:15;;;;;;;3.00;2.70;;;8.00;99.90;;;;;;5054955;28;20498;-78
2022/04/01 11:34:01;;;;;;;2.70;2.50;;;7.80;99.90;;;;;;5047917;28;20451;-79
2022/04/01 11:36:31;;;;;;;4.13;2.80;;;7.90;99.90;;;;;;5050415;28;20467;-77
2022/04/01 11:39:00;;;;;;;3.57;2.77;;;8.00;99.90;;;;;;5056723;28;20462;-77
2022/04/01 11:41:51;;;;;;;3.03;2.50;;;8.00;99.90;;;;;;5054452;28;21117;-78
2022/04/01 11:44:20;;;;;;;2.80;2.60;;;7.90;99.90;;;;;;5053389;28;20610;-80
2022/04/01 11:46:58;;;;;;;2.70;2.50;;;7.90;99.90;;;;;;5056082;28;20462;-78
2022/04/01 11:49:28;;;;;;;3.65;2.63;;;7.80;99.90;;;;;;5047224;28;20459;-78
2022/04/01 11:51:57;;;;;;;2.72;2.53;;;7.80;99.90;;;;;;5057483;28;20226;-78
2022/04/01 11:54:26;;;;;;;2.50;2.30;;;7.90;99.90;;;;;;5052426;28;20197;-77
2022/04/01 11:56:55;;;;;;;2.47;2.27;;;8.20;99.90;;;;;;5056821;28;20516;-77
2022/04/01 11:59:26;;;;;;;4.30;2.33;;;7.90;99.90;;;;;;5058947;28;20450;-79
2022/04/01 12:01:55;;;;;;;3.07;2.57;;;8.00;99.90;;;;;;5057327;28;20438;-78
2022/04/01 12:04:30;;;;;;;2.83;2.30;;;8.00;99.90;;;;;;5050736;28;20458;-78
2022/04/01 12:09:56;;;;;;;2.57;2.37;;;8.00;99.90;;;;;;5058769;28;20493;-81
2022/04/01 12:12:24;;;;;;;4.07;2.60;;;7.70;99.90;;;;;;5056472;28;20455;-77
2022/04/01 12:14:56;;;;;;;2.13;1.93;;;7.80;99.90;;;;;;5057857;28;20455;-78
2022/04/01 12:17:30;;;;;;;3.00;1.93;;;7.80;99.90;;;;;;5052294;28;21040;-78
2022/04/01 12:20:12;;;;;;;2.60;2.00;;;7.90;99.90;;;;;;5051532;28;20478;-78
2022/04/01 12:23:00;;;;;;;2.40;2.20;;;7.90;99.90;;;;;;5060195;28;20460;-78
2022/04/01 12:25:30;;;;;;;2.30;1.90;;;7.80;99.90;;;;;;5058719;28;20468;-78
2022/04/01 12:28:01;;;;;;;2.30;2.10;;;7.90;99.90;;;;;;5052138;28;20451;-78
2022/04/01 12:30:35;;;;;;;2.47;2.27;;;7.80;99.90;;;;;;5056481;28;20494;-77
2022/04/01 12:33:07;;;;;;;2.40;2.20;;;7.70;99.90;;;;;;5056736;28;20459;-78
2022/04/01 12:35:49;;;;;;;2.70;1.60;;;7.70;99.90;;;;;;5060500;28;20991;-79
2022/04/01 12:38:18;;;;;;;2.40;1.60;;;7.70;99.90;;;;;;5054348;28;21326;-80
2022/04/01 12:40:55;;;;;;;1.43;1.33;;;7.70;99.90;;;;;;5056309;28;20494;-77
2022/04/01 12:43:37;;;;;;;1.47;1.37;;;7.70;99.90;;;;;;5053276;28;20504;-79
2022/04/01 12:46:08;;;;;;;2.47;1.90;;;7.60;99.90;;;;;;5048446;28;20466;-77
2022/04/01 12:48:45;;;;;;;1.57;1.47;;;7.70;99.90;;;;;;5050159;28;20490;-79
2022/04/01 12:51:19;;;;;;;1.37;1.27;;;8.00;99.90;;;;;;5056289;28;20592;-77
2022/04/01 12:53:55;;;;;;;1.20;1.10;;;7.60;99.90;;;;;;5058364;28;20446;-78
2022/04/01 12:56:25;;;;;;;1.20;1.10;;;7.60;99.90;;;;;;5053359;28;20531;-78
2022/04/01 12:58:55;;;;;;;1.17;1.07;;;7.60;99.90;;;;;;5048308;28;20538;-79
2022/04/01 13:01:25;;;;;;;1.02;1.00;;;7.70;99.90;;;;;;5050225;28;20458;-78
2022/04/01 13:03:56;;;;;;;1.23;1.13;;;7.60;99.90;;;;;;5055689;28;20677;-77
2022/04/01 13:06:25;;;;;;;2.07;1.53;;;7.70;99.90;;;;;;5058913;28;20455;-79
2022/04/01 13:09:04;;;;;;;1.30;1.20;;;7.70;99.90;;;;;;5059084;28;20498;-80
2022/04/01 13:11:40;;;;;;;1.43;1.10;;;7.80;99.90;;;;;;5057307;28;20487;-78
2022/04/01 13:14:20;;;;;;;1.27;1.17;;;7.70;99.90;;;;;;5052943;28;20733;-78
2022/04/01 13:16:50;;;;;;;1.40;1.30;;;7.80;99.90;;;;;;5049443;28;20439;-79
2022/04/01 13:19:27;;;;;;;1.43;1.33;;;8.10;99.90;;;;;;5052939;28;20443;-78
2022/04/01 13:21:57;;;;;;;1.50;1.40;;;7.80;99.90;;;;;;5054693;28;21117;-78
2022/04/01 13:24:27;;;;;;;2.17;1.80;;;7.60;99.90;;;;;;5056347;28;20877;-78
2022/04/01 13:26:56;;;;;;;1.47;1.37;;;7.70;99.90;;;;;;5057457;28;20981;-78
2022/04/01 13:29:24;;;;;;;2.97;1.63;;;7.70;99.90;;;;;;5058485;28;20460;-78